Aviation Digital Data Service (ADDS)

Output produced by METARs form (0654 UTC 23 May 2017)
found at http://aviationweather.gov/adds/metars/
 
KSLK 230537Z 2306/2406 24006KT P6SM OVC045 
     FM230800 25005KT P6SM SCT050 
     TEMPO 2309/2311 2SM BR BKN002 
     FM231200 23006KT P6SM SCT045 BKN150 
     FM240000 VRB03KT P6SM SCT080